createdAt,value
2022-10-05T00:01:33.758Z,19.70
2022-10-05T00:04:13.324Z,19.70
2022-10-05T00:06:47.433Z,19.70
2022-10-05T00:09:24.258Z,19.70
2022-10-05T00:11:54.196Z,19.70
2022-10-05T00:14:34.223Z,19.70
2022-10-05T00:17:05.673Z,19.70
2022-10-05T00:19:37.282Z,19.70
2022-10-05T00:22:19.122Z,19.70
2022-10-05T00:24:49.946Z,19.60
2022-10-05T00:27:21.149Z,19.70
2022-10-05T00:29:52.265Z,19.60
2022-10-05T00:32:22.236Z,19.70
2022-10-05T00:34:52.241Z,19.70
2022-10-05T00:37:22.187Z,19.60
2022-10-05T00:39:52.331Z,19.70
2022-10-05T00:42:25.359Z,19.70
2022-10-05T00:45:00.496Z,19.70
2022-10-05T00:47:42.547Z,19.70
2022-10-05T00:50:30.440Z,19.70
2022-10-05T00:53:31.008Z,19.80
2022-10-05T00:56:29.208Z,19.90
2022-10-05T00:59:24.305Z,20.10
2022-10-05T01:02:03.590Z,20.10
2022-10-05T01:05:23.636Z,20.10
2022-10-05T01:08:00.378Z,20.20
2022-10-05T01:10:36.311Z,20.20
2022-10-05T01:13:29.138Z,20.20
2022-10-05T01:16:10.700Z,20.20
2022-10-05T01:19:22.231Z,20.30
2022-10-05T01:22:00.735Z,20.20
2022-10-05T01:24:56.654Z,20.30
2022-10-05T01:28:26.311Z,20.30
2022-10-05T01:31:11.231Z,20.30
2022-10-05T01:34:02.541Z,20.40
2022-10-05T01:36:44.593Z,20.40
2022-10-05T01:39:41.872Z,20.30
2022-10-05T01:42:34.651Z,20.40
2022-10-05T01:45:11.129Z,20.40
2022-10-05T01:47:42.499Z,20.50
2022-10-05T01:50:30.594Z,20.50
2022-10-05T01:53:13.917Z,20.40
2022-10-05T01:55:47.426Z,20.50
2022-10-05T01:58:24.971Z,20.50
2022-10-05T02:01:01.499Z,20.60
2022-10-05T02:03:37.238Z,20.50
2022-10-05T02:06:28.078Z,20.50
2022-10-05T02:09:00.705Z,20.50
2022-10-05T02:11:30.641Z,20.60
2022-10-05T02:14:14.066Z,20.60
2022-10-05T02:16:50.521Z,20.50
2022-10-05T02:19:44.308Z,20.60
2022-10-05T02:22:24.052Z,20.60
2022-10-05T02:24:57.363Z,20.60
2022-10-05T02:28:02.827Z,20.70
2022-10-05T02:30:34.314Z,20.70
2022-10-05T02:33:08.449Z,20.60
2022-10-05T02:35:38.497Z,20.70
2022-10-05T02:38:45.118Z,20.70
2022-10-05T02:41:46.446Z,20.70
2022-10-05T02:44:18.945Z,20.70
2022-10-05T02:46:54.638Z,20.70
2022-10-05T02:49:32.155Z,20.70
2022-10-05T02:52:13.533Z,20.70
2022-10-05T02:54:50.146Z,20.70
2022-10-05T02:57:26.898Z,20.70
2022-10-05T03:00:04.783Z,20.80
2022-10-05T03:03:00.790Z,20.70
2022-10-05T03:05:43.142Z,20.80
2022-10-05T03:08:29.305Z,20.80
2022-10-05T03:11:20.950Z,20.80
2022-10-05T03:13:54.464Z,20.80
2022-10-05T03:16:52.512Z,20.80
2022-10-05T03:20:24.007Z,20.80
2022-10-05T03:23:40.290Z,20.80
2022-10-05T03:26:20.746Z,20.80
2022-10-05T03:29:13.815Z,20.80
2022-10-05T03:32:07.323Z,20.90
2022-10-05T03:35:18.719Z,20.90
2022-10-05T03:38:07.210Z,20.90
2022-10-05T03:40:52.064Z,20.90
2022-10-05T03:43:31.874Z,20.80
2022-10-05T03:46:30.842Z,20.90
2022-10-05T03:49:09.518Z,20.90
2022-10-05T03:51:50.420Z,20.90
2022-10-05T03:54:56.911Z,20.90
2022-10-05T03:57:29.056Z,20.90
2022-10-05T04:00:07.046Z,21.00
2022-10-05T04:03:06.239Z,21.00
2022-10-05T04:05:59.542Z,21.00
2022-10-05T04:08:58.526Z,21.00
2022-10-05T04:11:36.995Z,21.00
2022-10-05T04:14:20.795Z,21.00
2022-10-05T04:17:15.148Z,21.00
2022-10-05T04:19:56.422Z,21.10
2022-10-05T04:22:52.420Z,21.10
2022-10-05T04:25:33.950Z,21.10
2022-10-05T04:28:13.193Z,21.10
2022-10-05T04:30:43.940Z,21.10
2022-10-05T04:33:14.855Z,21.10
2022-10-05T04:36:24.060Z,21.10
2022-10-05T04:38:54.512Z,21.10
2022-10-05T04:41:59.322Z,21.20
2022-10-05T04:44:45.326Z,21.20
2022-10-05T04:47:28.945Z,21.30
2022-10-05T04:50:14.871Z,21.40
2022-10-05T04:53:46.535Z,21.40
2022-10-05T04:56:31.824Z,21.50
2022-10-05T04:59:40.309Z,21.50
2022-10-05T05:02:25.549Z,21.60
2022-10-05T05:05:08.276Z,21.60
2022-10-05T05:07:44.575Z,21.60
2022-10-05T05:10:28.117Z,21.70
2022-10-05T05:13:02.961Z,21.70
2022-10-05T05:15:45.401Z,21.70
2022-10-05T05:18:32.956Z,21.70
2022-10-05T05:21:05.856Z,21.80
2022-10-05T05:23:38.837Z,21.80
2022-10-05T05:26:45.780Z,21.80
2022-10-05T05:29:35.816Z,21.80
2022-10-05T05:32:08.936Z,21.70
2022-10-05T05:35:02.041Z,21.80
2022-10-05T05:38:01.263Z,21.90
2022-10-05T05:40:36.356Z,21.90
2022-10-05T05:43:54.483Z,21.90
2022-10-05T05:46:51.135Z,21.90
2022-10-05T05:49:41.973Z,22.00
2022-10-05T05:52:26.856Z,22.00
2022-10-05T05:55:30.531Z,22.10
2022-10-05T05:58:12.453Z,22.10
2022-10-05T06:00:48.648Z,22.20
2022-10-05T06:03:47.159Z,22.30
2022-10-05T06:06:20.327Z,22.40
2022-10-05T06:08:54.848Z,22.60
2022-10-05T06:11:58.873Z,22.80
2022-10-05T06:14:42.095Z,23.00
2022-10-05T06:17:21.330Z,23.30
2022-10-05T06:19:51.718Z,23.50
2022-10-05T06:22:26.390Z,23.80
2022-10-05T06:25:14.881Z,24.00
2022-10-05T06:28:15.146Z,24.20
2022-10-05T06:31:06.791Z,24.40
2022-10-05T06:34:05.998Z,24.50
2022-10-05T06:36:42.133Z,24.70
2022-10-05T06:39:29.041Z,24.80
2022-10-05T06:42:18.726Z,24.90
2022-10-05T06:45:19.252Z,25.10
2022-10-05T06:48:05.181Z,25.30
2022-10-05T06:51:27.036Z,25.50
2022-10-05T06:54:35.299Z,25.60
2022-10-05T06:57:50.575Z,25.80
2022-10-05T07:00:23.213Z,25.90
2022-10-05T07:03:20.526Z,26.00
2022-10-05T07:06:21.188Z,26.20
2022-10-05T07:09:07.744Z,26.20
2022-10-05T07:12:00.850Z,26.30
2022-10-05T07:15:00.649Z,26.50
2022-10-05T07:21:21.657Z,26.70
2022-10-05T07:24:06.658Z,26.80
2022-10-05T07:26:44.122Z,26.90
2022-10-05T07:29:24.054Z,26.90
2022-10-05T07:32:14.222Z,27.00
2022-10-05T07:35:31.542Z,27.10
2022-10-05T07:38:09.207Z,27.20
2022-10-05T07:41:04.661Z,27.30
2022-10-05T07:44:08.859Z,27.40
2022-10-05T07:46:57.860Z,27.40
2022-10-05T07:49:58.345Z,27.40
2022-10-05T07:52:41.453Z,27.40
2022-10-05T07:55:16.728Z,27.40
2022-10-05T07:57:57.870Z,27.60
2022-10-05T08:00:41.228Z,27.60
2022-10-05T08:03:20.228Z,27.70
2022-10-05T08:05:50.259Z,27.80
2022-10-05T08:08:42.625Z,27.80
2022-10-05T08:11:36.718Z,27.80
2022-10-05T08:14:36.547Z,27.80
2022-10-05T08:17:13.102Z,27.80
2022-10-05T08:19:50.408Z,27.80
2022-10-05T08:22:27.064Z,27.80
2022-10-05T08:25:07.918Z,27.80
2022-10-05T08:28:16.630Z,27.80
2022-10-05T08:31:12.495Z,27.60
2022-10-05T08:33:53.147Z,27.40
2022-10-05T08:36:30.309Z,27.50
2022-10-05T08:39:00.706Z,27.80
2022-10-05T08:42:07.541Z,27.90
2022-10-05T08:45:00.848Z,27.80
2022-10-05T08:47:59.598Z,27.70
2022-10-05T08:50:43.405Z,27.80
2022-10-05T08:53:22.565Z,27.90
2022-10-05T08:56:27.807Z,27.90
2022-10-05T08:59:07.186Z,27.90
2022-10-05T09:02:14.561Z,27.80
2022-10-05T09:05:30.449Z,27.70
2022-10-05T09:08:23.878Z,27.70
2022-10-05T09:11:00.535Z,27.70
2022-10-05T09:13:46.289Z,27.60
2022-10-05T09:16:37.939Z,27.50
2022-10-05T09:19:20.340Z,27.40
2022-10-05T09:22:00.156Z,27.50
2022-10-05T09:24:58.569Z,27.40
2022-10-05T09:27:38.791Z,27.40
2022-10-05T09:30:53.326Z,27.30
2022-10-05T09:33:54.327Z,27.10
2022-10-05T09:36:35.817Z,27.00
2022-10-05T09:39:24.226Z,26.90
2022-10-05T09:42:10.970Z,26.80
2022-10-05T09:44:56.217Z,26.60
2022-10-05T09:47:42.692Z,26.50
2022-10-05T09:50:42.053Z,25.50
2022-10-05T09:53:41.684Z,25.60
2022-10-05T09:56:20.843Z,24.10
2022-10-05T09:59:12.780Z,20.20
2022-10-05T10:05:06.873Z,18.80
2022-10-05T10:20:34.752Z,22.70
2022-10-05T10:23:26.959Z,24.80
2022-10-05T10:26:07.004Z,24.80
2022-10-05T10:29:23.055Z,24.80
2022-10-05T10:37:17.466Z,24.80
2022-10-05T10:45:07.251Z,24.70
2022-10-05T10:51:00.750Z,24.60
2022-10-05T11:22:56.886Z,24.60
2022-10-05T12:32:20.568Z,24.40
2022-10-05T12:35:12.791Z,23.40
2022-10-05T13:09:31.586Z,23.30
2022-10-05T13:17:24.966Z,23.00
2022-10-05T13:22:48.106Z,22.90
2022-10-05T13:25:36.091Z,22.80
2022-10-05T13:31:06.366Z,22.80
2022-10-05T13:33:54.908Z,22.80
2022-10-05T13:36:42.806Z,22.80
2022-10-05T13:39:25.398Z,22.80
2022-10-05T13:42:16.978Z,22.80
2022-10-05T13:45:12.755Z,22.70
2022-10-05T14:03:51.073Z,22.70
2022-10-05T14:06:31.799Z,22.60
2022-10-05T14:09:02.063Z,22.50
2022-10-05T14:11:33.928Z,22.50
2022-10-05T14:14:25.395Z,22.50
2022-10-05T14:19:43.193Z,22.50
2022-10-05T14:22:23.509Z,22.50
2022-10-05T14:25:17.382Z,22.50
2022-10-05T14:28:03.251Z,22.40
2022-10-05T14:30:33.946Z,22.40
2022-10-05T14:33:07.695Z,22.30
2022-10-05T14:35:52.776Z,22.40
2022-10-05T14:38:32.184Z,22.40
2022-10-05T14:54:53.529Z,22.40
2022-10-05T14:58:24.880Z,22.30
2022-10-05T15:01:03.837Z,22.20
2022-10-05T15:03:41.835Z,22.10
2022-10-05T15:06:29.367Z,22.10
2022-10-05T15:09:21.355Z,22.10
2022-10-05T15:11:55.222Z,22.00
2022-10-05T15:14:29.323Z,22.00
2022-10-05T15:17:04.938Z,21.90
2022-10-05T15:19:56.449Z,21.90
2022-10-05T15:22:50.523Z,21.80
2022-10-05T15:25:52.035Z,21.80
2022-10-05T15:28:27.766Z,21.80
2022-10-05T15:31:13.425Z,21.70
2022-10-05T15:33:54.930Z,21.70
2022-10-05T15:36:27.836Z,21.70
2022-10-05T15:39:30.089Z,21.60
2022-10-05T15:42:18.094Z,21.60
2022-10-05T15:45:20.306Z,21.60
2022-10-05T15:48:01.970Z,21.60
2022-10-05T15:50:33.644Z,21.50
2022-10-05T15:53:54.037Z,21.50
2022-10-05T15:56:27.075Z,21.50
2022-10-05T15:58:56.929Z,21.40
2022-10-05T16:01:35.629Z,21.50
2022-10-05T16:04:25.029Z,21.40
2022-10-05T16:07:19.009Z,21.40
2022-10-05T16:10:19.766Z,21.40
2022-10-05T16:13:06.943Z,21.30
2022-10-05T16:15:52.830Z,21.30
2022-10-05T16:18:59.785Z,21.30
2022-10-05T16:21:59.996Z,21.30
2022-10-05T16:25:03.061Z,21.30
2022-10-05T16:27:39.007Z,21.20
2022-10-05T16:30:13.361Z,21.20
2022-10-05T16:33:02.036Z,21.20
2022-10-05T16:38:51.976Z,21.10
2022-10-05T16:42:07.726Z,21.10
2022-10-05T16:45:07.977Z,21.00
2022-10-05T16:47:48.809Z,21.00
2022-10-05T16:50:23.575Z,21.00
2022-10-05T16:53:04.283Z,20.90
2022-10-05T16:55:39.170Z,20.90
2022-10-05T16:58:22.726Z,20.90
2022-10-05T17:01:09.989Z,20.90
2022-10-05T17:04:01.388Z,20.80
2022-10-05T17:07:08.361Z,20.80
2022-10-05T17:10:26.343Z,20.80
2022-10-05T17:13:06.110Z,20.80
2022-10-05T17:16:06.852Z,20.70
2022-10-05T17:18:51.988Z,20.70
2022-10-05T17:21:36.109Z,20.70
2022-10-05T17:24:18.661Z,20.60
2022-10-05T17:26:56.014Z,20.60
2022-10-05T17:29:54.301Z,20.60
2022-10-05T17:32:24.173Z,20.60
2022-10-05T17:35:03.202Z,20.50
2022-10-05T17:37:38.842Z,20.50
2022-10-05T17:40:39.084Z,20.50
2022-10-05T17:43:18.330Z,20.50
2022-10-05T17:45:48.328Z,20.40
2022-10-05T17:48:42.831Z,20.40
2022-10-05T17:51:49.285Z,20.40
2022-10-05T17:54:51.387Z,20.30
2022-10-05T17:57:26.440Z,20.30
2022-10-05T17:59:58.934Z,20.30
2022-10-05T18:02:39.497Z,20.30
2022-10-05T18:05:17.234Z,20.30
2022-10-05T18:07:49.352Z,20.30
2022-10-05T18:10:36.686Z,20.20
2022-10-05T18:13:42.838Z,20.20
2022-10-05T18:16:12.399Z,20.20
2022-10-05T18:18:45.732Z,20.20
2022-10-05T18:21:20.438Z,20.20
2022-10-05T18:24:17.732Z,20.20
2022-10-05T18:27:13.188Z,20.20
2022-10-05T18:30:09.922Z,20.10
2022-10-05T18:32:52.739Z,20.20
2022-10-05T18:35:47.727Z,20.10
2022-10-05T18:38:32.803Z,20.10
2022-10-05T18:41:19.701Z,20.10
2022-10-05T18:44:04.964Z,20.10
2022-10-05T18:47:08.850Z,20.00
2022-10-05T18:49:48.419Z,20.10
2022-10-05T18:52:52.458Z,20.00
2022-10-05T18:55:34.913Z,20.00
2022-10-05T18:58:23.633Z,20.00
2022-10-05T19:01:15.384Z,20.00
2022-10-05T19:03:52.287Z,19.90
2022-10-05T19:06:28.467Z,19.90
2022-10-05T19:09:21.565Z,19.90
2022-10-05T19:12:13.087Z,19.90
2022-10-05T19:15:07.595Z,19.90
2022-10-05T19:18:05.880Z,19.90
2022-10-05T19:20:42.728Z,19.90
2022-10-05T19:23:41.112Z,19.80
2022-10-05T19:26:40.086Z,19.80
2022-10-05T19:29:45.301Z,19.80
2022-10-05T19:32:38.068Z,19.80
2022-10-05T19:35:10.828Z,19.80
2022-10-05T19:37:58.847Z,19.80
2022-10-05T19:41:07.153Z,19.70
2022-10-05T19:43:51.554Z,19.80
2022-10-05T19:46:31.939Z,19.80
2022-10-05T19:49:01.966Z,19.80
2022-10-05T19:51:36.007Z,19.70
2022-10-05T19:54:26.102Z,19.70
2022-10-05T19:56:56.444Z,19.70
2022-10-05T19:59:35.890Z,19.70
2022-10-05T20:02:05.873Z,19.70
2022-10-05T20:04:42.023Z,19.70
2022-10-05T20:07:21.358Z,19.60
2022-10-05T20:10:00.264Z,19.60
2022-10-05T20:12:53.607Z,19.60
2022-10-05T20:15:44.011Z,19.60
2022-10-05T20:19:05.414Z,19.60
2022-10-05T20:22:01.650Z,19.50
2022-10-05T20:24:33.305Z,19.50
2022-10-05T20:27:08.754Z,19.50
2022-10-05T20:29:48.134Z,19.60
2022-10-05T20:32:21.836Z,19.50
2022-10-05T20:34:52.279Z,19.50
2022-10-05T20:37:22.159Z,19.50
2022-10-05T20:39:55.183Z,19.50
2022-10-05T20:42:25.117Z,19.40
2022-10-05T20:44:56.988Z,19.50
2022-10-05T20:47:27.959Z,19.40
2022-10-05T20:49:57.877Z,19.40
2022-10-05T20:52:28.164Z,19.40
2022-10-05T20:54:59.466Z,19.40
2022-10-05T20:57:31.777Z,19.40
2022-10-05T21:00:01.847Z,19.40
2022-10-05T21:02:34.711Z,19.40
2022-10-05T21:05:05.718Z,19.40
2022-10-05T21:07:35.791Z,19.40
2022-10-05T21:10:06.085Z,19.40
2022-10-05T21:12:36.084Z,19.40
2022-10-05T21:15:06.437Z,19.30
2022-10-05T21:17:37.486Z,19.30
2022-10-05T21:20:12.793Z,19.30
2022-10-05T21:22:43.088Z,19.30
2022-10-05T21:25:12.944Z,19.20
2022-10-05T21:27:42.924Z,19.30
2022-10-05T21:30:13.967Z,19.30
2022-10-05T21:32:44.771Z,19.30
2022-10-05T21:35:15.209Z,19.20
2022-10-05T21:37:45.193Z,19.20
2022-10-05T21:40:15.771Z,19.20
2022-10-05T21:42:45.669Z,19.20
2022-10-05T21:45:15.713Z,19.20
2022-10-05T21:47:45.625Z,19.20
2022-10-05T21:50:15.536Z,19.10
2022-10-05T21:52:45.449Z,19.20
2022-10-05T21:55:15.433Z,19.20
2022-10-05T21:57:45.360Z,19.10
2022-10-05T22:00:17.559Z,19.10
2022-10-05T22:02:47.785Z,19.20
2022-10-05T22:05:17.777Z,19.20
2022-10-05T22:07:47.733Z,19.20
2022-10-05T22:10:17.680Z,19.10
2022-10-05T22:12:48.350Z,19.10
2022-10-05T22:15:18.431Z,19.10
2022-10-05T22:17:48.405Z,19.10
2022-10-05T22:20:18.639Z,19.10
2022-10-05T22:22:48.562Z,19.10
2022-10-05T22:25:18.858Z,19.10
2022-10-05T22:27:48.991Z,19.10
2022-10-05T22:30:19.708Z,19.10
2022-10-05T22:32:49.672Z,19.00
2022-10-05T22:35:19.624Z,19.10
2022-10-05T22:37:49.543Z,19.00
2022-10-05T22:40:19.510Z,19.00
2022-10-05T22:42:49.400Z,19.00
2022-10-05T22:45:19.311Z,19.00
2022-10-05T22:47:49.233Z,19.00
2022-10-05T22:50:19.216Z,19.00
2022-10-05T22:52:51.685Z,19.00
2022-10-05T22:55:21.727Z,18.90
2022-10-05T22:57:51.643Z,19.00
2022-10-05T23:00:27.622Z,18.90
2022-10-05T23:03:01.258Z,18.90
2022-10-05T23:05:31.614Z,18.90
2022-10-05T23:08:03.349Z,19.00
2022-10-05T23:10:33.516Z,18.90
2022-10-05T23:13:03.846Z,18.90
2022-10-05T23:15:34.938Z,18.90
2022-10-05T23:18:04.920Z,18.90
2022-10-05T23:20:34.817Z,18.90
2022-10-05T23:23:04.784Z,18.90
2022-10-05T23:25:34.728Z,18.80
2022-10-05T23:28:04.880Z,18.90
2022-10-05T23:30:34.920Z,18.90
2022-10-05T23:33:04.914Z,18.90
2022-10-05T23:35:34.896Z,18.90
2022-10-05T23:38:04.964Z,18.90
2022-10-05T23:40:34.934Z,18.90
2022-10-05T23:43:04.888Z,18.90
2022-10-05T23:45:34.990Z,18.90
2022-10-05T23:48:04.935Z,18.90
2022-10-05T23:50:35.212Z,18.90
2022-10-05T23:53:06.201Z,18.90
2022-10-05T23:55:36.115Z,18.90
2022-10-05T23:58:06.218Z,18.90
